Candler, North Carolina
Current Conditions -  °F | °C
As of 10:54 PM on Thursday 18 Dec 2014 (Local Time) from KAVL Reporting Station
Overcast Overcast  
Wind Chill: 34°   Ceiling: 4000
Heat Index: 40°   Visibility: 10mi
Dew Point: 24°   Wind: 8mph
Humidity: 53%   Direction: 340°NNW
Pressure: 30.11"   Gusts: NA
Location:  35.54°N, 82.65°W
Report Text: KAVL 190354Z AUTO 34007KT 10SM OVC040 04/M04 A3011 RMK AO2 SLP196 T00441044
Loading
Personal Weather Stations






























Interactive Weather Map New forecast layout! Learn more

10-Day Weather Forecast

Advertisements
Track Severe Weather on mobile